Time,TemperatureF,DewpointF,PressureIn,WindDirection,WindDirectionDegrees,WindSpeedMPH,WindSpeedGustMPH,Humidity,HourlyPrecipIn,Conditions,Clouds,dailyrainin,SoftwareType,DateUTC
2013-07-19 00:06:00,75.6,74.7,29.87,SSW,202,0.0,-999.0,97,-99.99,,,0.00,Acu-Link.com,2013-07-19 04:06:00,
2013-07-19 00:21:00,75.4,74.5,29.87,SSW,202,0.0,-999.0,97,-99.99,,,0.00,Acu-Link.com,2013-07-19 04:21:00,
2013-07-19 00:37:00,75.2,74.3,29.87,SSW,202,0.0,-999.0,97,-99.99,,,0.00,Acu-Link.com,2013-07-19 04:37:00,
2013-07-19 00:52:00,76.1,75.2,29.87,South,180,1.7,-999.0,97,-99.99,,,0.00,Acu-Link.com,2013-07-19 04:52:00,
2013-07-19 01:07:00,76.1,75.2,29.87,South,180,0.0,-999.0,97,-99.99,,,0.00,Acu-Link.com,2013-07-19 05:07:00,
2013-07-19 01:22:00,75.9,74.7,29.87,South,180,0.0,-999.0,96,-99.99,,,0.00,Acu-Link.com,2013-07-19 05:22:00,
2013-07-19 01:37:00,75.7,74.8,29.85,ESE,112,0.0,-999.0,97,-99.99,,,0.00,Acu-Link.com,2013-07-19 05:37:00,
2013-07-19 01:53:00,75.6,74.7,29.86,South,180,0.0,-999.0,97,-99.99,,,0.00,Acu-Link.com,2013-07-19 05:53:00,
2013-07-19 02:08:00,75.4,74.5,29.85,South,180,0.0,-999.0,97,-99.99,,,0.00,Acu-Link.com,2013-07-19 06:08:00,
2013-07-19 02:23:00,75.2,74.6,29.85,SE,135,0.0,-999.0,98,-99.99,,,0.00,Acu-Link.com,2013-07-19 06:23:00,
2013-07-19 02:38:00,74.8,74.2,29.84,SE,135,0.0,-999.0,98,-99.99,,,0.00,Acu-Link.com,2013-07-19 06:38:00,
2013-07-19 02:54:00,74.7,74.1,29.83,SSE,157,0.0,-999.0,98,-99.99,,,0.00,Acu-Link.com,2013-07-19 06:54:00,
2013-07-19 03:09:00,74.5,73.9,29.84,SSE,157,0.0,-999.0,98,-99.99,,,0.00,Acu-Link.com,2013-07-19 07:09:00,
2013-07-19 03:24:00,74.5,73.9,29.82,SSE,157,0.0,-999.0,98,-99.99,,,0.00,Acu-Link.com,2013-07-19 07:24:00,
2013-07-19 03:39:00,74.7,74.4,29.82,SSE,157,0.0,-999.0,99,-99.99,,,0.00,Acu-Link.com,2013-07-19 07:39:00,
2013-07-19 03:54:00,74.8,74.5,29.82,SSE,157,0.0,-999.0,99,-99.99,,,0.00,Acu-Link.com,2013-07-19 07:54:00,
2013-07-19 04:10:00,74.7,74.4,29.82,SSE,157,0.0,-999.0,99,-99.99,,,0.00,Acu-Link.com,2013-07-19 08:10:00,
2013-07-19 04:25:00,74.7,74.4,29.82,SSE,157,0.0,-999.0,99,-99.99,,,0.00,Acu-Link.com,2013-07-19 08:25:00,
2013-07-19 04:41:00,74.7,74.4,29.82,SSE,157,0.0,-999.0,99,-99.99,,,0.00,Acu-Link.com,2013-07-19 08:41:00,
2013-07-19 04:56:00,74.3,74.0,29.83,SSE,157,0.0,-999.0,99,-99.99,,,0.00,Acu-Link.com,2013-07-19 08:56:00,
2013-07-19 05:11:00,74.3,74.0,29.83,SSE,157,0.0,-999.0,99,-99.99,,,0.00,Acu-Link.com,2013-07-19 09:11:00,
2013-07-19 05:26:00,73.8,73.5,29.83,SSE,157,0.0,-999.0,99,-99.99,,,0.00,Acu-Link.com,2013-07-19 09:26:00,
2013-07-19 05:41:00,73.6,73.3,29.84,SSE,157,0.0,-999.0,99,-99.99,,,0.00,Acu-Link.com,2013-07-19 09:41:00,
2013-07-19 05:56:00,73.2,72.9,29.84,NE,45,0.0,-999.0,99,-99.99,,,0.00,Acu-Link.com,2013-07-19 09:56:00,
2013-07-19 06:12:00,73.0,72.7,29.84,NE,45,0.0,-999.0,99,-99.99,,,0.00,Acu-Link.com,2013-07-19 10:12:00,
2013-07-19 06:27:00,73.2,72.9,29.84,South,180,0.0,-999.0,99,-99.99,,,0.00,Acu-Link.com,2013-07-19 10:27:00,
2013-07-19 06:42:00,73.6,73.3,29.84,South,180,0.0,-999.0,99,-99.99,,,0.00,Acu-Link.com,2013-07-19 10:42:00,
2013-07-19 06:57:00,74.1,73.8,29.85,South,180,0.0,-999.0,99,-99.99,,,0.00,Acu-Link.com,2013-07-19 10:57:00,
2013-07-19 07:12:00,74.3,74.0,29.85,South,180,0.0,-999.0,99,-99.99,,,0.00,Acu-Link.com,2013-07-19 11:12:00,
2013-07-19 07:28:00,75.0,74.7,29.86,SE,135,0.0,-999.0,99,-99.99,,,0.00,Acu-Link.com,2013-07-19 11:28:00,
2013-07-19 07:43:00,75.7,75.4,29.85,SSE,157,2.2,-999.0,99,-99.99,,,0.00,Acu-Link.com,2013-07-19 11:43:00,
2013-07-19 07:58:00,76.6,75.7,29.86,SSE,157,1.1,-999.0,97,-99.99,,,0.00,Acu-Link.com,2013-07-19 11:58:00,
2013-07-19 08:13:00,77.5,76.3,29.86,SE,135,0.0,-999.0,96,-99.99,,,0.00,Acu-Link.com,2013-07-19 12:13:00,
2013-07-19 08:28:00,78.6,76.4,29.87,WSW,247,1.1,-999.0,93,-99.99,,,0.00,Acu-Link.com,2013-07-19 12:28:00,
2013-07-19 08:44:00,79.5,77.0,29.86,SSE,157,1.7,-999.0,92,-99.99,,,0.00,Acu-Link.com,2013-07-19 12:44:00,
2013-07-19 08:59:00,80.2,76.7,29.88,West,270,1.1,-999.0,89,-99.99,,,0.00,Acu-Link.com,2013-07-19 12:59:00,
2013-07-19 09:14:00,81.3,77.0,29.86,SSE,157,1.7,-999.0,87,-99.99,,,0.00,Acu-Link.com,2013-07-19 13:14:00,
2013-07-19 09:29:00,82.2,77.6,29.87,NNW,337,2.7,-999.0,86,-99.99,,,0.00,Acu-Link.com,2013-07-19 13:29:00,
2013-07-19 09:44:00,83.5,77.8,29.87,SSE,157,2.2,-999.0,83,-99.99,,,0.00,Acu-Link.com,2013-07-19 13:44:00,
2013-07-19 10:00:00,84.4,77.9,29.88,NNE,22,2.7,-999.0,81,-99.99,,,0.00,Acu-Link.com,2013-07-19 14:00:00,
2013-07-19 10:15:00,85.1,77.8,29.87,South,180,2.2,-999.0,79,-99.99,,,0.00,Acu-Link.com,2013-07-19 14:15:00,
2013-07-19 10:30:00,85.8,78.1,29.87,SW,225,2.2,-999.0,78,-99.99,,,0.00,Acu-Link.com,2013-07-19 14:30:00,
2013-07-19 10:45:00,87.8,78.9,29.87,South,180,1.1,-999.0,75,-99.99,,,0.00,Acu-Link.com,2013-07-19 14:45:00,
2013-07-19 11:01:00,86.9,78.4,29.88,South,180,1.7,-999.0,76,-99.99,,,0.00,Acu-Link.com,2013-07-19 15:01:00,
2013-07-19 11:16:00,87.1,77.8,29.88,South,180,2.7,-999.0,74,-99.99,,,0.00,Acu-Link.com,2013-07-19 15:16:00,
2013-07-19 11:31:00,88.2,78.0,29.87,SSE,157,4.2,-999.0,72,-99.99,,,0.00,Acu-Link.com,2013-07-19 15:31:00,
2013-07-19 11:46:00,88.0,77.4,29.87,WNW,292,1.7,-999.0,71,-99.99,,,0.00,Acu-Link.com,2013-07-19 15:46:00,
2013-07-19 12:01:00,88.7,78.5,29.87,SSE,157,2.7,-999.0,72,-99.99,,,0.00,Acu-Link.com,2013-07-19 16:01:00,
2013-07-19 12:17:00,86.7,77.0,29.87,ESE,112,1.7,-999.0,73,-99.99,,,0.00,Acu-Link.com,2013-07-19 16:17:00,
2013-07-19 12:32:00,88.2,78.0,29.86,SSW,202,2.2,-999.0,72,-99.99,,,0.00,Acu-Link.com,2013-07-19 16:32:00,
2013-07-19 12:47:00,90.3,78.3,29.86,East,90,0.0,-999.0,68,-99.99,,,0.00,Acu-Link.com,2013-07-19 16:47:00,
2013-07-19 13:02:00,91.2,78.2,29.86,South,180,2.7,-999.0,66,-99.99,,,0.00,Acu-Link.com,2013-07-19 17:02:00,
2013-07-19 13:17:00,90.1,75.8,29.85,SE,135,2.2,-999.0,63,-99.99,,,0.00,Acu-Link.com,2013-07-19 17:17:00,
2013-07-19 13:33:00,90.9,76.5,29.85,SSE,157,1.7,-999.0,63,-99.99,,,0.00,Acu-Link.com,2013-07-19 17:33:00,
2013-07-19 13:48:00,92.1,76.2,29.84,SSW,202,3.2,-999.0,60,-99.99,,,0.00,Acu-Link.com,2013-07-19 17:48:00,
2013-07-19 14:03:00,89.8,76.4,29.84,South,180,1.7,-999.0,65,-99.99,,,0.00,Acu-Link.com,2013-07-19 18:03:00,
2013-07-19 14:18:00,91.8,76.9,29.83,NNW,337,1.7,-999.0,62,-99.99,,,0.00,Acu-Link.com,2013-07-19 18:18:00,
2013-07-19 14:33:00,90.7,75.4,29.82,South,180,3.7,-999.0,61,-99.99,,,0.00,Acu-Link.com,2013-07-19 18:33:00,
2013-07-19 14:49:00,91.8,75.9,29.82,South,180,2.7,-999.0,60,-99.99,,,0.00,Acu-Link.com,2013-07-19 18:49:00,
2013-07-19 15:04:00,92.3,76.4,29.82,South,180,3.2,-999.0,60,-99.99,,,0.00,Acu-Link.com,2013-07-19 19:04:00,
2013-07-19 15:19:00,89.4,75.6,29.81,SSE,157,3.7,-999.0,64,-99.99,,,0.00,Acu-Link.com,2013-07-19 19:19:00,
2013-07-19 15:34:00,89.4,76.1,29.80,South,180,2.7,-999.0,65,-99.99,,,0.00,Acu-Link.com,2013-07-19 19:34:00,
2013-07-19 15:49:00,91.0,76.6,29.80,SSW,202,1.7,-999.0,63,-99.99,,,0.00,Acu-Link.com,2013-07-19 19:49:00,
2013-07-19 16:05:00,91.6,76.2,29.80,South,180,2.7,-999.0,61,-99.99,,,0.00,Acu-Link.com,2013-07-19 20:05:00,
2013-07-19 16:20:00,90.9,75.6,29.78,NW,315,5.3,-999.0,61,-99.99,,,0.00,Acu-Link.com,2013-07-19 20:20:00,
2013-07-19 16:35:00,90.9,75.6,29.78,South,180,3.2,-999.0,61,-99.99,,,0.00,Acu-Link.com,2013-07-19 20:35:00,
2013-07-19 16:50:00,91.6,76.2,29.78,South,180,2.2,-999.0,61,-99.99,,,0.00,Acu-Link.com,2013-07-19 20:50:00,
2013-07-19 17:06:00,91.2,75.8,29.78,South,180,2.2,-999.0,61,-99.99,,,0.00,Acu-Link.com,2013-07-19 21:06:00,
2013-07-19 17:21:00,90.7,75.9,29.78,ENE,67,4.2,-999.0,62,-99.99,,,0.00,Acu-Link.com,2013-07-19 21:21:00,
2013-07-19 17:36:00,90.0,75.2,29.78,SW,225,2.7,-999.0,62,-99.99,,,0.00,Acu-Link.com,2013-07-19 21:36:00,
2013-07-19 17:51:00,91.2,74.8,29.78,South,180,2.2,-999.0,59,-99.99,,,0.00,Acu-Link.com,2013-07-19 21:51:00,
2013-07-19 18:06:00,91.2,74.8,29.77,South,180,2.2,-999.0,59,-99.99,,,0.00,Acu-Link.com,2013-07-19 22:06:00,
2013-07-19 18:22:00,93.6,76.0,29.77,South,180,2.7,-999.0,57,-99.99,,,0.00,Acu-Link.com,2013-07-19 22:22:00,
2013-07-19 18:37:00,94.5,75.8,29.77,South,180,2.2,-999.0,55,-99.99,,,0.00,Acu-Link.com,2013-07-19 22:37:00,
2013-07-19 18:52:00,92.5,75.0,29.77,South,180,2.2,-999.0,57,-99.99,,,0.00,Acu-Link.com,2013-07-19 22:52:00,
2013-07-19 19:08:00,92.5,75.5,29.77,South,180,1.1,-999.0,58,-99.99,,,0.00,Acu-Link.com,2013-07-19 23:08:00,
2013-07-19 19:23:00,90.1,74.3,29.77,SSW,202,2.2,-999.0,60,-99.99,,,0.00,Acu-Link.com,2013-07-19 23:23:00,
2013-07-19 19:38:00,89.2,73.5,29.78,South,180,1.7,-999.0,60,-99.99,,,0.00,Acu-Link.com,2013-07-19 23:38:00,
2013-07-19 19:53:00,87.3,73.1,29.77,South,180,1.7,-999.0,63,-99.99,,,0.00,Acu-Link.com,2013-07-19 23:53:00,
2013-07-19 20:08:00,88.0,72.8,29.78,West,270,0.0,-999.0,61,-99.99,,,0.05,Acu-Link.com,2013-07-20 00:08:00,
2013-07-19 20:24:00,88.3,72.6,29.78,West,270,0.0,-999.0,60,-99.99,,,0.05,Acu-Link.com,2013-07-20 00:24:00,
2013-07-19 20:39:00,88.2,72.0,29.78,West,270,0.0,-999.0,59,-99.99,,,0.05,Acu-Link.com,2013-07-20 00:39:00,
2013-07-19 20:54:00,87.6,74.8,29.77,ESE,112,0.0,-999.0,66,-99.99,,,1.22,Acu-Link.com,2013-07-20 00:54:00,
2013-07-19 21:10:00,87.1,74.3,29.78,ESE,112,0.0,-999.0,66,-99.99,,,2.39,Acu-Link.com,2013-07-20 01:10:00,
2013-07-19 21:25:00,85.5,80.5,29.77,North,0,0.0,-999.0,85,-99.99,,,2.47,Acu-Link.com,2013-07-20 01:25:00,
2013-07-19 21:40:00,83.8,77.3,29.79,East,90,0.0,-999.0,81,-99.99,,,2.54,Acu-Link.com,2013-07-20 01:40:00,
2013-07-19 21:55:00,83.3,77.2,29.80,East,90,0.0,-999.0,82,-99.99,,,3.52,Acu-Link.com,2013-07-20 01:55:00,
2013-07-19 22:10:00,83.1,76.3,29.80,East,90,0.0,-999.0,80,-99.99,,,4.63,Acu-Link.com,2013-07-20 02:10:00,
2013-07-19 22:26:00,82.9,75.7,29.80,East,90,0.0,-999.0,79,-99.99,,,5.33,Acu-Link.com,2013-07-20 02:26:00,
2013-07-19 22:41:00,82.9,76.1,29.81,East,90,0.0,-999.0,80,-99.99,,,6.14,Acu-Link.com,2013-07-20 02:41:00,
2013-07-19 22:56:00,82.9,76.5,29.81,ESE,112,0.0,-999.0,81,-99.99,,,6.36,Acu-Link.com,2013-07-20 02:56:00,
2013-07-19 23:11:00,82.8,76.7,29.82,ESE,112,0.0,-999.0,82,-99.99,,,7.43,Acu-Link.com,2013-07-20 03:11:00,
2013-07-19 23:26:00,82.6,76.5,29.81,ESE,112,0.0,-999.0,82,-99.99,,,7.43,Acu-Link.com,2013-07-20 03:26:00,
2013-07-19 23:42:00,82.6,76.5,29.82,ESE,112,0.0,-999.0,82,-99.99,,,8.63,Acu-Link.com,2013-07-20 03:42:00,
2013-07-19 23:57:00,82.6,75.0,29.81,ESE,112,0.0,-999.0,78,-99.99,,,9.54,Acu-Link.com,2013-07-20 03:57:00,